Time;durP1;ratioP1;P1;durP2;ratioP2;P2;SDS_P1;SDS_P2;PMS_P1;PMS_P2;Temp;Humidity;BMP_temperature;BMP_pressure;BME280_temperature;BME280_humidity;BME280_pressure;Samples;Min_cycle;Max_cycle;Signal;HPM_P1;HPM_P2
2023/01/24 00:00:05;;;;;;;19.50;13.75;;;;;;;2.52;78.98;100604.22;5088794;28;20307;-74
2023/01/24 00:02:32;;;;;;;18.85;13.95;;;;;;;2.54;78.91;100612.94;5106372;28;20223;-74
2023/01/24 00:04:59;;;;;;;16.92;12.20;;;;;;;2.52;78.97;100612.06;5105490;28;20040;-75
2023/01/24 00:07:27;;;;;;;18.65;14.02;;;;;;;2.12;78.90;100549.38;5106338;28;20059;-75
2023/01/24 00:09:54;;;;;;;17.92;13.38;;;;;;;2.53;79.08;100611.19;5106079;28;20055;-75
2023/01/24 00:12:22;;;;;;;17.48;12.75;;;;;;;1.97;78.96;100525.84;5106211;28;20047;-74
2023/01/24 00:14:49;;;;;;;17.02;13.18;;;;;;;2.51;79.06;100605.97;5105272;28;20032;-74
2023/01/24 00:17:17;;;;;;;17.38;13.43;;;;;;;2.52;78.86;100604.22;5106138;28;20066;-75
2023/01/24 00:19:44;;;;;;;18.05;13.95;;;;;;;2.52;78.98;100599.84;5106107;28;20056;-73
2023/01/24 00:22:11;;;;;;;17.52;13.85;;;;;;;2.50;78.99;100596.38;5106597;28;20054;-75
2023/01/24 00:24:38;;;;;;;19.60;14.10;;;;;;;2.52;78.81;100598.97;5105924;28;20067;-75
2023/01/24 00:27:04;;;;;;;17.25;13.07;;;;;;;2.51;78.94;100600.72;5106223;28;20054;-75
2023/01/24 00:29:32;;;;;;;23.80;14.10;;;;;;;2.51;78.91;100602.47;5106542;28;20051;-75
2023/01/24 00:31:59;;;;;;;16.70;14.35;;;;;;;2.51;78.84;100602.47;5106172;28;20054;-75
2023/01/24 00:34:26;;;;;;;17.98;13.98;;;;;;;2.52;79.00;100606.81;5106102;28;20051;-75
2023/01/24 00:36:53;;;;;;;18.92;13.32;;;;;;;2.51;78.93;100605.09;5105005;28;20185;-75
2023/01/24 00:39:20;;;;;;;17.17;13.20;;;;;;;2.53;78.80;100600.72;5106075;28;20291;-75
2023/01/24 00:41:46;;;;;;;16.13;13.57;;;;;;;2.52;78.97;100607.69;5105762;28;20141;-75
2023/01/24 00:44:13;;;;;;;17.05;13.02;;;;;;;2.52;78.78;100605.09;5106381;28;20047;-75
2023/01/24 00:46:42;;;;;;;16.48;12.63;;;;;;;2.51;78.74;100607.69;5105750;28;20044;-75
2023/01/24 00:49:09;;;;;;;16.65;12.68;;;;;;;2.30;78.87;100574.63;5104907;28;20051;-74
2023/01/24 00:51:36;;;;;;;15.98;12.80;;;;;;;2.52;78.85;100604.22;5105947;28;20044;-74
2023/01/24 00:54:03;;;;;;;19.02;13.55;;;;;;;2.51;78.70;100600.72;5104832;28;20039;-75
2023/01/24 00:56:29;;;;;;;16.40;12.25;;;;;;;2.39;78.76;100581.56;5105714;28;20044;-75
2023/01/24 00:58:56;;;;;;;16.35;13.15;;;;;;;2.52;78.65;100601.59;5112906;28;20044;-74
2023/01/24 01:01:23;;;;;;;14.93;12.23;;;;;;;2.51;78.68;100600.72;5112508;28;20039;-74
2023/01/24 01:03:55;;;;;;;17.50;12.80;;;;;;;2.51;78.64;100607.69;5112843;28;20067;-74
2023/01/24 01:06:23;;;;;;;15.90;12.35;;;;;;;2.50;78.74;100603.34;5111836;28;20299;-74
2023/01/24 01:08:50;;;;;;;15.70;11.73;;;;;;;2.49;78.81;100605.09;5112912;28;20054;-75
2023/01/24 01:11:16;;;;;;;16.27;12.88;;;;;;;2.50;78.68;100606.84;5112319;28;20115;-75
2023/01/24 01:13:44;;;;;;;16.25;12.32;;;;;;;2.50;78.76;100612.06;5112766;28;20042;-75
2023/01/24 01:16:16;;;;;;;18.42;12.90;;;;;;;2.50;78.83;100617.28;5112835;28;20046;-75
2023/01/24 01:18:43;;;;;;;16.50;12.93;;;;;;;2.50;78.72;100611.19;5111436;28;20219;-75
2023/01/24 01:21:13;;;;;;;19.20;13.50;;;;;;;2.50;78.74;100619.03;5112758;28;20173;-75
2023/01/24 01:23:39;;;;;;;20.08;13.45;;;;;;;2.50;78.78;100613.81;5112718;28;20058;-75
2023/01/24 01:26:09;;;;;;;18.33;13.35;;;;;;;2.50;78.73;100624.28;5112170;28;20054;-75
2023/01/24 01:28:37;;;;;;;15.43;12.75;;;;;;;2.50;78.73;100622.53;5112657;28;20035;-75
2023/01/24 01:31:04;;;;;;;15.27;12.48;;;;;;;2.50;78.82;100621.66;5112131;28;20044;-75
2023/01/24 01:33:30;;;;;;;16.42;12.10;;;;;;;2.51;78.84;100628.63;5111262;28;20044;-75
2023/01/24 01:35:57;;;;;;;15.20;13.27;;;;;;;2.49;78.82;100623.41;5112534;28;20101;-75
2023/01/24 01:38:27;;;;;;;16.27;13.40;;;;;;;2.47;78.87;100627.78;5111220;28;20181;-75
2023/01/24 01:40:54;;;;;;;19.25;13.90;;;;;;;2.48;78.81;100629.50;5112288;28;20059;-75
2023/01/24 01:43:23;;;;;;;16.20;12.98;;;;;;;2.20;78.70;100588.59;5112265;28;20192;-75
2023/01/24 01:45:52;;;;;;;15.68;12.52;;;;;;;2.49;78.66;100651.31;5112238;28;20192;-75
2023/01/24 01:48:24;;;;;;;15.73;12.02;;;;;;;2.48;78.76;100637.38;5111057;28;20044;-75
2023/01/24 01:50:58;;;;;;;15.10;12.18;;;;;;;2.49;78.75;100643.47;5111081;28;20042;-75
2023/01/24 01:53:31;;;;;;;16.88;12.77;;;;;;;2.47;78.71;100643.47;5111098;28;20048;-75
2023/01/24 01:56:02;;;;;;;15.82;12.38;;;;;;;2.47;78.86;100643.47;5112370;28;20040;-75
2023/01/24 01:58:29;;;;;;;18.75;12.38;;;;;;;2.48;78.98;100647.84;5111972;28;20212;-75
2023/01/24 02:00:56;;;;;;;16.27;12.82;;;;;;;2.48;78.69;100641.72;5112134;28;20310;-75
2023/01/24 02:03:39;;;;;;;17.40;12.65;;;;;;;2.48;78.70;100649.56;5110884;28;20074;-75
2023/01/24 02:06:08;;;;;;;16.75;12.48;;;;;;;2.48;78.92;100650.44;5112529;28;20048;-75
2023/01/24 02:08:36;;;;;;;16.38;12.40;;;;;;;2.49;78.72;100644.34;5110393;28;20145;-75
2023/01/24 02:13:48;;;;;;;17.58;12.82;;;;;;;2.32;78.74;100627.81;5108711;28;20044;-75
2023/01/24 02:16:15;;;;;;;15.82;12.75;;;;;;;2.47;78.71;100650.44;5107670;28;20119;-75
2023/01/24 02:18:44;;;;;;;17.42;13.40;;;;;;;0.06;78.30;100239.56;5108272;28;20107;-75
2023/01/24 02:21:14;;;;;;;14.82;11.98;;;;;;;2.47;78.76;100658.31;5108642;28;20303;-75
2023/01/24 02:23:51;;;;;;;14.73;11.75;;;;;;;2.46;78.57;100657.44;5107478;28;20071;-75
2023/01/24 02:26:22;;;;;;;17.20;12.88;;;;;;;2.46;78.64;100659.19;5107725;28;20160;-75
2023/01/24 02:28:53;;;;;;;13.77;10.93;;;;;;;2.48;78.64;100654.81;5108556;28;20050;-75
2023/01/24 02:31:20;;;;;;;15.60;11.57;;;;;;;2.48;78.60;100654.81;5108131;28;20036;-76
2023/01/24 02:33:46;;;;;;;16.17;11.45;;;;;;;2.49;78.58;100662.66;5107292;28;20039;-75
2023/01/24 02:36:21;;;;;;;16.33;12.85;;;;;;;2.47;78.61;100648.72;5108300;28;20101;-75
2023/01/24 02:38:54;;;;;;;16.38;12.40;;;;;;;2.46;78.66;100652.19;5108349;28;20051;-75
2023/01/24 02:41:27;;;;;;;15.80;11.63;;;;;;;2.47;78.58;100647.84;5107968;28;20036;-75
2023/01/24 02:44:02;;;;;;;15.05;12.63;;;;;;;2.48;78.54;100647.84;5107906;28;20040;-75
2023/01/24 02:46:30;;;;;;;14.95;12.68;;;;;;;2.48;78.46;100652.19;5107043;28;20044;-75
2023/01/24 02:48:57;;;;;;;15.07;11.48;;;;;;;2.49;78.51;100648.69;5106998;28;20054;-75
2023/01/24 02:54:08;;;;;;;14.05;11.30;;;;;;;2.47;78.50;100651.31;5107906;28;20226;-75
2023/01/24 02:59:20;;;;;;;14.82;12.27;;;;;;;2.48;78.49;100649.56;5107901;28;20044;-75
2023/01/24 03:01:47;;;;;;;14.77;11.20;;;;;;;2.47;78.45;100645.22;5106606;28;20052;-74
2023/01/24 03:04:15;;;;;;;16.90;12.90;;;;;;;2.48;78.42;100654.81;5107824;28;20044;-75
2023/01/24 03:06:42;;;;;;;15.45;12.35;;;;;;;2.47;78.49;100647.84;5107535;28;20059;-75
2023/01/24 03:09:19;;;;;;;15.80;12.30;;;;;;;2.47;78.55;100658.31;5108277;28;20184;-75
2023/01/24 03:11:48;;;;;;;17.95;12.50;;;;;;;2.44;78.46;100656.56;5107446;28;20089;-75
2023/01/24 03:36:19;;;;;;;21.47;13.93;;;;;;;2.40;78.47;100667.03;5107193;28;20052;-75
2023/01/24 03:41:31;;;;;;;18.35;13.75;;;;;;;2.40;78.41;100667.03;5107116;28;20040;-75
2023/01/24 03:43:59;;;;;;;15.05;11.63;;;;;;;2.40;78.33;100677.50;5105911;28;20070;-75
2023/01/24 03:46:26;;;;;;;16.00;12.25;;;;;;;2.42;78.31;100665.28;5106877;28;20060;-75
2023/01/24 03:48:52;;;;;;;15.57;11.88;;;;;;;2.42;78.43;100667.91;5105859;28;20054;-75
2023/01/24 03:54:04;;;;;;;17.15;13.15;;;;;;;2.41;78.29;100671.41;5106616;28;20040;-75
2023/01/24 03:56:30;;;;;;;17.85;14.38;;;;;;;2.41;78.39;100674.00;5105526;28;20044;-75
2023/01/24 03:58:58;;;;;;;17.85;13.05;;;;;;;2.42;78.39;100673.13;5105947;28;20040;-75
2023/01/24 04:01:25;;;;;;;18.50;13.18;;;;;;;2.42;78.48;100674.00;5105438;28;20044;-75
2023/01/24 04:03:52;;;;;;;18.67;13.45;;;;;;;1.59;78.26;100531.09;5106389;28;20059;-76
2023/01/24 04:06:19;;;;;;;18.33;13.80;;;;;;;2.40;78.43;100669.66;5106035;28;20097;-75
2023/01/24 04:08:49;;;;;;;20.02;14.88;;;;;;;2.39;78.39;100667.91;5106049;28;20364;-75
2023/01/24 04:11:15;;;;;;;18.35;13.75;;;;;;;2.38;78.64;100674.00;5105459;28;20086;-75
2023/01/24 04:13:42;;;;;;;20.67;13.88;;;;;;;2.39;78.52;100670.53;5106271;28;20036;-75
2023/01/24 04:16:12;;;;;;;19.50;14.27;;;;;;;2.37;78.46;100670.53;5105303;28;20039;-75
2023/01/24 04:18:38;;;;;;;17.52;13.13;;;;;;;2.37;78.34;100677.50;5106475;28;20195;-75
2023/01/24 04:21:06;;;;;;;18.73;13.30;;;;;;;1.75;78.28;100597.31;5106662;28;20043;-75
2023/01/24 04:23:33;;;;;;;18.63;13.23;;;;;;;2.35;78.30;100680.13;5106042;28;20040;-75
2023/01/24 04:26:00;;;;;;;19.65;14.48;;;;;;;2.37;78.35;100686.22;5106595;28;20044;-75
2023/01/24 04:28:28;;;;;;;19.88;14.45;;;;;;;2.37;78.49;100674.88;5106269;28;20054;-75
2023/01/24 04:30:58;;;;;;;18.88;13.55;;;;;;;2.35;78.53;100668.78;5105929;28;20035;-75
2023/01/24 04:33:27;;;;;;;21.02;15.13;;;;;;;2.35;78.49;100677.50;5105910;28;20307;-75
2023/01/24 04:35:57;;;;;;;22.58;15.48;;;;;;;-0.08;78.26;100270.81;5106087;28;20284;-75
2023/01/24 04:38:24;;;;;;;19.80;14.00;;;;;;;2.35;78.51;100680.13;5105738;28;20063;-75
2023/01/24 04:40:59;;;;;;;25.20;16.83;;;;;;;2.04;78.39;100631.31;5105813;28;20058;-75
2023/01/24 04:43:25;;;;;;;21.83;17.10;;;;;;;2.34;78.45;100686.22;5105874;28;20036;-75
2023/01/24 04:45:56;;;;;;;19.02;14.20;;;;;;;2.35;78.58;100689.72;5104949;28;20207;-75
2023/01/24 04:48:22;;;;;;;21.85;15.45;;;;;;;2.36;78.40;100689.72;5105727;28;20051;-75
2023/01/24 04:50:51;;;;;;;20.02;15.68;;;;;;;2.37;78.42;100688.84;5105668;28;20188;-75
2023/01/24 04:53:18;;;;;;;18.50;13.82;;;;;;;2.36;78.53;100681.00;5105638;28;20058;-75
2023/01/24 04:55:44;;;;;;;20.95;13.88;;;;;;;2.36;78.42;100687.09;5105845;28;20303;-75
2023/01/24 04:58:11;;;;;;;21.20;14.65;;;;;;;2.35;78.43;100698.44;5105890;28;20040;-75
2023/01/24 05:00:38;;;;;;;21.10;16.40;;;;;;;2.35;78.54;100695.81;5106137;28;20044;-75
2023/01/24 05:03:05;;;;;;;20.13;15.30;;;;;;;2.35;78.54;100697.56;5105578;28;20055;-75
2023/01/24 05:05:31;;;;;;;23.98;16.98;;;;;;;2.35;78.49;100695.81;5106132;28;20224;-75
2023/01/24 05:08:00;;;;;;;20.67;14.45;;;;;;;2.35;78.29;100693.19;5106110;28;20063;-75
2023/01/24 05:10:27;;;;;;;21.42;16.50;;;;;;;2.36;78.43;100701.91;5105599;28;20044;-75
2023/01/24 05:12:54;;;;;;;21.35;15.60;;;;;;;2.35;78.63;100698.44;5105796;28;20040;-75
2023/01/24 05:15:22;;;;;;;22.30;15.90;;;;;;;-0.54;78.13;100207.31;5105992;28;20349;-75
2023/01/24 05:17:49;;;;;;;21.20;14.93;;;;;;;2.35;78.25;100701.06;5104598;28;20063;-75
2023/01/24 05:20:16;;;;;;;18.17;14.27;;;;;;;2.36;78.43;100702.78;5105495;28;20353;-75
2023/01/24 05:22:46;;;;;;;22.27;15.73;;;;;;;2.35;78.38;100703.66;5105974;28;20058;-75
2023/01/24 05:25:15;;;;;;;21.10;16.08;;;;;;;2.35;78.56;100700.19;5104573;28;20089;-75
2023/01/24 05:27:42;;;;;;;24.95;15.68;;;;;;;2.34;78.54;100704.53;5105808;28;20052;-75
2023/01/24 05:30:10;;;;;;;20.33;15.50;;;;;;;2.33;78.49;100702.78;5105890;28;20052;-75
2023/01/24 05:32:37;;;;;;;21.88;17.80;;;;;;;2.33;78.50;100707.16;5104926;28;20192;-75
2023/01/24 05:35:05;;;;;;;21.23;16.30;;;;;;;1.80;78.48;100613.88;5104371;28;20211;-75
2023/01/24 05:37:31;;;;;;;21.05;15.30;;;;;;;2.33;78.44;100701.94;5105531;28;20032;-75
2023/01/24 05:39:59;;;;;;;22.45;15.45;;;;;;;2.33;78.47;100705.41;5105505;28;20050;-75
2023/01/24 05:42:28;;;;;;;21.77;16.08;;;;;;;2.33;78.48;100707.16;5105515;28;20051;-75
2023/01/24 05:44:54;;;;;;;24.05;16.35;;;;;;;2.33;78.49;100715.88;5108309;28;20058;-75
2023/01/24 05:47:21;;;;;;;22.92;15.82;;;;;;;2.31;78.51;100714.13;5109259;28;20043;-75
2023/01/24 05:49:48;;;;;;;23.05;16.63;;;;;;;2.32;78.60;100721.97;5108975;28;20040;-75
2023/01/24 05:52:20;;;;;;;26.45;17.75;;;;;;;1.08;78.45;100508.41;5109217;28;20051;-75
2023/01/24 05:54:47;;;;;;;24.40;17.55;;;;;;;2.34;78.60;100722.84;5109298;28;20044;-75
2023/01/24 05:57:14;;;;;;;19.27;14.82;;;;;;;2.33;78.62;100718.50;5109314;28;20046;-76
2023/01/24 05:59:42;;;;;;;23.75;17.58;;;;;;;2.33;78.44;100726.34;5108810;28;20048;-75
2023/01/24 06:02:09;;;;;;;23.27;16.55;;;;;;;2.35;78.42;100734.19;5107734;28;20043;-75
2023/01/24 06:04:36;;;;;;;22.40;16.42;;;;;;;2.33;78.29;100728.97;5108973;28;20211;-75
2023/01/24 06:07:02;;;;;;;23.08;17.20;;;;;;;2.33;78.45;100722.84;5109208;28;20039;-75
2023/01/24 06:09:29;;;;;;;23.67;17.65;;;;;;;2.33;78.58;100728.09;5109162;28;20048;-75
2023/01/24 06:11:56;;;;;;;23.88;17.90;;;;;;;1.30;78.40;100559.81;5108541;28;20043;-75
2023/01/24 06:14:22;;;;;;;24.27;15.90;;;;;;;2.33;78.50;100734.19;5108842;28;20044;-75
2023/01/24 06:16:51;;;;;;;23.48;15.85;;;;;;;2.33;78.55;100749.03;5108199;28;20032;-75
2023/01/24 06:19:18;;;;;;;22.00;16.00;;;;;;;2.31;78.46;100753.38;5107545;28;20036;-75
2023/01/24 06:21:46;;;;;;;22.77;16.45;;;;;;;2.30;78.61;100762.09;5108280;28;20046;-75
2023/01/24 06:24:19;;;;;;;24.23;16.83;;;;;;;2.30;78.59;100754.25;5108268;28;20040;-75
2023/01/24 06:26:46;;;;;;;24.98;16.90;;;;;;;2.31;78.50;100764.72;5108769;28;20054;-75
2023/01/24 06:29:14;;;;;;;28.73;17.27;;;;;;;2.32;78.48;100770.81;5107330;28;20371;-75
2023/01/24 06:31:51;;;;;;;25.45;18.10;;;;;;;2.33;78.49;100765.59;5107285;28;20043;-75
2023/01/24 06:34:37;;;;;;;25.20;18.58;;;;;;;2.32;78.47;100776.94;5108094;28;20043;-75
2023/01/24 06:37:16;;;;;;;23.83;15.52;;;;;;;2.30;78.62;100775.19;5106994;28;20323;-75
2023/01/24 06:39:49;;;;;;;23.98;17.27;;;;;;;2.30;78.59;100777.78;5108211;28;20060;-75
2023/01/24 06:42:17;;;;;;;25.55;17.20;;;;;;;2.31;78.75;100783.03;5108545;28;20036;-75
2023/01/24 06:44:44;;;;;;;22.20;15.88;;;;;;;2.31;78.63;100783.03;5107082;28;20044;-75
2023/01/24 06:47:11;;;;;;;23.67;17.58;;;;;;;2.33;78.65;100777.78;5107795;28;20047;-75
2023/01/24 06:49:40;;;;;;;24.92;17.13;;;;;;;2.32;78.58;100781.28;5108226;28;20085;-75
2023/01/24 06:52:08;;;;;;;27.10;18.45;;;;;;;2.34;78.55;100785.66;5107819;28;20055;-75
2023/01/24 06:54:35;;;;;;;27.08;18.42;;;;;;;2.34;78.59;100792.63;5107607;28;20169;-75
2023/01/24 06:57:03;;;;;;;29.85;21.15;;;;;;;2.32;78.71;100792.63;5106726;28;20081;-75
2023/01/24 06:59:29;;;;;;;25.55;17.75;;;;;;;2.32;78.68;100797.84;5107828;28;20044;-75
2023/01/24 07:01:56;;;;;;;25.13;16.13;;;;;;;2.31;78.60;100795.25;5106563;28;20345;-74
2023/01/24 07:04:23;;;;;;;27.13;17.70;;;;;;;2.32;78.55;100803.09;5106717;28;20043;-74
2023/01/24 07:06:52;;;;;;;35.88;19.58;;;;;;;2.33;78.78;100799.59;5107495;28;20210;-74
2023/01/24 07:09:19;;;;;;;23.52;17.05;;;;;;;1.92;78.63;100746.34;5107706;28;20051;-75
2023/01/24 07:11:49;;;;;;;27.30;18.83;;;;;;;2.34;78.71;100808.31;5106187;28;20036;-74
2023/01/24 07:14:16;;;;;;;24.88;18.27;;;;;;;2.34;78.73;100810.94;5106422;28;20044;-74
2023/01/24 07:16:42;;;;;;;25.95;19.88;;;;;;;2.35;78.74;100812.69;5106273;28;20046;-75
2023/01/24 07:19:15;;;;;;;28.20;17.42;;;;;;;2.34;78.65;100808.31;5107689;28;20044;-74
2023/01/24 07:21:43;;;;;;;26.23;19.17;;;;;;;2.34;78.62;100810.94;5107012;28;20039;-74
2023/01/24 07:24:14;;;;;;;26.00;16.88;;;;;;;2.33;78.57;100810.06;5106230;28;20296;-75
2023/01/24 07:26:42;;;;;;;29.88;19.63;;;;;;;2.34;78.69;100817.03;5107210;28;20044;-75
2023/01/24 07:29:09;;;;;;;28.23;18.45;;;;;;;2.35;78.74;100820.53;5107500;28;20050;-74
2023/01/24 07:31:35;;;;;;;28.88;18.65;;;;;;;2.35;78.63;100826.63;5106938;28;20188;-74
2023/01/24 07:34:02;;;;;;;27.60;19.17;;;;;;;2.36;78.62;100833.63;5105888;28;20208;-74
2023/01/24 07:36:29;;;;;;;25.33;17.88;;;;;;;2.36;78.63;100823.16;5107077;28;20093;-74
2023/01/24 07:38:56;;;;;;;25.20;17.60;;;;;;;2.37;78.66;100829.25;5106891;28;20218;-75
2023/01/24 07:41:24;;;;;;;26.38;18.67;;;;;;;2.38;78.64;100834.50;5106223;28;20042;-75
2023/01/24 07:43:51;;;;;;;26.08;18.63;;;;;;;2.39;78.62;100835.38;5107239;28;20040;-74
2023/01/24 07:46:19;;;;;;;26.98;19.00;;;;;;;2.38;78.72;100829.25;5107321;28;20050;-74
2023/01/24 07:48:45;;;;;;;25.13;18.70;;;;;;;2.37;78.61;100830.13;5105757;28;20036;-75
2023/01/24 07:51:12;;;;;;;26.67;19.15;;;;;;;2.39;78.43;100835.38;5106328;28;20043;-75
2023/01/24 07:53:39;;;;;;;29.35;19.02;;;;;;;2.39;78.59;100837.97;5105827;28;20215;-74
2023/01/24 07:56:07;;;;;;;25.13;18.65;;;;;;;2.40;78.57;100842.34;5105926;28;20323;-75
2023/01/24 07:58:35;;;;;;;29.83;20.63;;;;;;;2.41;78.68;100836.25;5106440;28;20035;-75
2023/01/24 08:01:02;;;;;;;28.17;18.17;;;;;;;2.41;78.51;100834.50;5106974;28;20044;-75
2023/01/24 08:03:28;;;;;;;31.00;19.45;;;;;;;1.25;78.54;100648.59;5106294;28;20075;-75
2023/01/24 08:05:55;;;;;;;28.17;17.92;;;;;;;2.44;78.70;100850.19;5106535;28;20051;-75
2023/01/24 08:08:22;;;;;;;27.83;19.38;;;;;;;2.45;78.60;100849.34;5106166;28;20090;-74
2023/01/24 08:10:49;;;;;;;28.38;19.25;;;;;;;2.46;78.59;100847.59;5106161;28;20040;-75
2023/01/24 08:13:16;;;;;;;24.85;17.92;;;;;;;2.47;78.55;100849.34;5106228;28;20215;-74
2023/01/24 08:15:44;;;;;;;27.38;18.00;;;;;;;2.48;78.42;100851.94;5105173;28;20054;-74
2023/01/24 08:18:11;;;;;;;25.90;18.95;;;;;;;2.49;78.40;100845.84;5106074;28;20040;-75
2023/01/24 08:20:38;;;;;;;28.23;18.30;;;;;;;2.48;78.49;100851.94;5105295;28;20040;-75
2023/01/24 08:23:05;;;;;;;26.10;17.50;;;;;;;2.49;78.34;100851.09;5106529;28;20058;-75
2023/01/24 08:25:33;;;;;;;32.83;19.92;;;;;;;0.01;78.25;100434.16;5105872;28;20036;-75
2023/01/24 08:28:00;;;;;;;28.20;20.25;;;;;;;2.51;78.31;100862.44;5106017;28;20063;-75
2023/01/24 08:30:27;;;;;;;28.00;19.80;;;;;;;2.52;78.42;100861.56;5105084;28;20047;-74
2023/01/24 08:33:03;;;;;;;28.73;19.85;;;;;;;2.37;78.23;100834.50;5105883;28;20051;-75
2023/01/24 08:35:31;;;;;;;27.10;19.67;;;;;;;2.12;78.27;100804.78;5106088;28;20233;-74
2023/01/24 08:37:58;;;;;;;28.13;17.67;;;;;;;2.54;78.42;100874.66;5106288;28;20036;-74
2023/01/24 08:40:25;;;;;;;28.15;17.52;;;;;;;1.87;78.31;100764.63;5105851;28;20043;-75
2023/01/24 08:42:52;;;;;;;25.42;18.33;;;;;;;2.56;78.29;100875.53;5105792;28;20047;-75
2023/01/24 08:45:19;;;;;;;28.85;17.83;;;;;;;2.57;78.23;100879.00;5105975;28;20043;-74
2023/01/24 08:47:51;;;;;;;28.10;19.08;;;;;;;2.55;78.31;100886.84;5105801;28;20040;-74
2023/01/24 08:50:20;;;;;;;28.67;18.98;;;;;;;2.57;78.21;100887.72;5104709;28;20204;-75
2023/01/24 08:52:47;;;;;;;33.47;22.02;;;;;;;2.59;78.28;100878.13;5105933;28;20044;-75
2023/01/24 08:55:15;;;;;;;28.23;20.60;;;;;;;2.60;78.26;100877.28;5106208;28;20201;-74
2023/01/24 08:57:41;;;;;;;30.17;19.73;;;;;;;2.62;78.16;100885.13;5106053;28;20043;-75
2023/01/24 09:00:10;;;;;;;29.50;18.45;;;;;;;2.62;78.05;100882.50;5104707;28;20032;-75
2023/01/24 09:02:38;;;;;;;27.40;20.02;;;;;;;2.61;78.23;100886.00;5105425;28;20060;-75
2023/01/24 09:05:05;;;;;;;27.15;18.73;;;;;;;2.62;78.13;100888.63;5105495;28;20043;-75
2023/01/24 09:07:36;;;;;;;27.50;19.52;;;;;;;2.62;78.22;100892.97;5105554;28;20081;-75
2023/01/24 09:10:03;;;;;;;28.73;19.05;;;;;;;2.61;78.13;100897.34;5105381;28;20051;-75
2023/01/24 09:12:31;;;;;;;28.20;18.77;;;;;;;2.62;78.17;100887.75;5105781;28;20044;-75
2023/01/24 09:14:58;;;;;;;30.40;20.05;;;;;;;2.63;78.20;100892.09;5104672;28;20123;-75
2023/01/24 09:17:25;;;;;;;30.67;20.20;;;;;;;2.61;78.15;100897.34;5105485;28;20050;-74
2023/01/24 09:19:51;;;;;;;28.90;19.25;;;;;;;2.62;78.21;100912.19;5110032;28;20222;-75
2023/01/24 09:22:18;;;;;;;29.08;18.77;;;;;;;2.62;78.20;100904.31;5109404;28;20039;-75
2023/01/24 09:24:46;;;;;;;32.10;19.17;;;;;;;2.63;78.28;100913.03;5109757;28;20040;-75
2023/01/24 09:27:13;;;;;;;31.27;20.52;;;;;;;2.62;78.21;100917.41;5109372;28;20046;-75
2023/01/24 09:29:40;;;;;;;28.92;18.60;;;;;;;2.64;78.38;100914.78;5109281;28;20040;-75
2023/01/24 09:32:07;;;;;;;30.08;21.33;;;;;;;2.00;78.05;100817.84;5109411;28;20097;-74
2023/01/24 09:34:34;;;;;;;29.23;21.10;;;;;;;2.69;78.35;100913.06;5109220;28;20062;-75
2023/01/24 09:37:01;;;;;;;29.13;19.42;;;;;;;2.69;78.20;100919.16;5108149;28;20039;-75
2023/01/24 09:39:27;;;;;;;30.65;20.67;;;;;;;2.68;78.08;100913.94;5108570;28;20040;-75
2023/01/24 09:42:04;;;;;;;28.60;19.58;;;;;;;2.67;77.93;100910.44;5109312;28;20078;-74
2023/01/24 09:44:40;;;;;;;28.15;19.23;;;;;;;2.68;78.05;100913.94;5109168;28;20052;-75
2023/01/24 09:47:18;;;;;;;28.92;18.42;;;;;;;2.67;78.04;100913.06;5109289;28;20089;-74
2023/01/24 09:49:51;;;;;;;31.20;20.48;;;;;;;2.67;78.15;100907.81;5109529;28;20050;-75
2023/01/24 09:52:26;;;;;;;29.75;19.25;;;;;;;2.67;78.05;100909.56;5107759;28;20042;-75
2023/01/24 09:55:01;;;;;;;33.15;21.00;;;;;;;2.68;78.10;100909.56;5107977;28;20051;-74
2023/01/24 09:57:36;;;;;;;28.33;20.23;;;;;;;2.68;78.13;100906.06;5107790;28;20050;-75
2023/01/24 10:00:10;;;;;;;30.38;19.35;;;;;;;2.68;78.12;100900.84;5107850;28;20046;-75
2023/01/24 10:02:38;;;;;;;27.85;19.02;;;;;;;2.68;78.03;100908.69;5107724;28;20052;-75
2023/01/24 10:05:05;;;;;;;28.08;18.40;;;;;;;2.70;77.96;100907.81;5108490;28;20052;-74
2023/01/24 10:07:48;;;;;;;28.70;19.77;;;;;;;2.69;77.86;100900.84;5108875;28;20288;-75
2023/01/24 10:10:32;;;;;;;30.25;20.65;;;;;;;2.70;77.92;100899.97;5107736;28;20204;-74
2023/01/24 10:13:10;;;;;;;27.30;18.67;;;;;;;2.59;77.85;100878.13;5109118;28;20040;-75
2023/01/24 10:15:46;;;;;;;27.70;19.38;;;;;;;2.71;77.94;100904.34;5107657;28;20051;-75
2023/01/24 10:18:31;;;;;;;27.38;18.10;;;;;;;2.72;77.77;100899.97;5108687;28;20046;-75
2023/01/24 10:21:21;;;;;;;27.60;20.77;;;;;;;2.70;77.60;100899.97;5107525;28;20058;-75
2023/01/24 10:23:52;;;;;;;25.67;18.83;;;;;;;2.71;77.93;100900.84;5107449;28;20307;-75
2023/01/24 10:26:21;;;;;;;25.13;17.23;;;;;;;2.71;77.75;100890.38;5107279;28;20051;-75
2023/01/24 10:28:52;;;;;;;27.67;18.08;;;;;;;2.72;77.80;100892.13;5108239;28;20062;-75
2023/01/24 10:31:24;;;;;;;29.48;19.30;;;;;;;2.73;77.63;100894.75;5108166;28;20048;-75
2023/01/24 10:33:54;;;;;;;26.63;17.95;;;;;;;2.74;77.66;100888.63;5108551;28;20046;-75
2023/01/24 10:36:30;;;;;;;26.55;17.98;;;;;;;2.75;77.71;100887.75;5108187;28;20093;-76
2023/01/24 10:38:56;;;;;;;28.73;19.10;;;;;;;2.76;77.57;100889.50;5108331;28;20210;-75
2023/01/24 10:41:25;;;;;;;25.67;17.77;;;;;;;2.76;77.62;100886.88;5106809;28;20044;-75
2023/01/24 10:44:00;;;;;;;27.65;19.05;;;;;;;2.77;77.55;100887.75;5108104;28;20057;-75
2023/01/24 10:46:39;;;;;;;25.85;18.15;;;;;;;2.76;77.46;100880.78;5108067;28;20203;-75
2023/01/24 10:49:11;;;;;;;27.27;18.92;;;;;;;2.76;77.57;100880.78;5108182;28;20036;-75
2023/01/24 10:51:38;;;;;;;27.10;17.92;;;;;;;2.78;77.58;100879.91;5106760;28;20048;-75
2023/01/24 10:54:18;;;;;;;26.38;18.40;;;;;;;2.79;77.59;100876.41;5108267;28;20043;-75
2023/01/24 10:56:45;;;;;;;29.08;18.92;;;;;;;2.79;77.57;100880.78;5106753;28;20214;-75
2023/01/24 10:59:15;;;;;;;27.48;18.98;;;;;;;2.78;77.53;100879.03;5107880;28;20050;-75
2023/01/24 11:01:46;;;;;;;30.88;20.42;;;;;;;2.80;77.41;100872.94;5106495;28;20056;-75
2023/01/24 11:04:19;;;;;;;27.90;19.33;;;;;;;2.81;77.34;100871.19;5107459;28;20055;-75
2023/01/24 11:06:48;;;;;;;29.25;16.63;;;;;;;2.81;77.29;100872.06;5107528;28;20040;-75
2023/01/24 11:09:19;;;;;;;30.00;19.20;;;;;;;2.82;77.38;100870.31;5107938;28;20047;-75
2023/01/24 11:11:50;;;;;;;24.67;16.92;;;;;;;2.82;77.32;100867.69;5107408;28;20093;-75
2023/01/24 11:14:22;;;;;;;22.17;16.52;;;;;;;2.79;77.26;100868.56;5107803;28;20063;-75
2023/01/24 11:16:51;;;;;;;23.98;17.73;;;;;;;2.80;77.15;100866.81;5107175;28;20040;-75
2023/01/24 11:19:27;;;;;;;27.13;18.35;;;;;;;2.80;77.11;100867.69;5107107;28;20050;-75
2023/01/24 11:21:56;;;;;;;27.13;18.02;;;;;;;2.80;77.15;100865.06;5107148;28;20048;-75
2023/01/24 11:24:24;;;;;;;25.40;17.60;;;;;;;2.42;77.27;100790.88;5107667;28;20294;-75
2023/01/24 11:27:02;;;;;;;25.30;19.27;;;;;;;2.81;77.02;100845.88;5106242;28;20036;-75
2023/01/24 11:29:31;;;;;;;28.92;16.80;;;;;;;2.82;77.03;100844.13;5106951;28;20052;-75
2023/01/24 11:32:16;;;;;;;25.50;16.38;;;;;;;2.83;76.95;100848.50;5107008;28;20363;-75
2023/01/24 11:34:54;;;;;;;25.45;18.25;;;;;;;2.81;77.00;100840.63;5107175;28;20044;-75
2023/01/24 11:37:57;;;;;;;25.33;17.65;;;;;;;2.82;76.84;100834.53;5107313;28;20040;-75
2023/01/24 11:40:34;;;;;;;24.90;17.48;;;;;;;2.82;77.03;100831.03;5105809;28;20047;-75
2023/01/24 11:43:15;;;;;;;26.40;18.58;;;;;;;2.84;76.87;100834.53;5105248;28;20280;-75
2023/01/24 11:46:01;;;;;;;25.55;16.52;;;;;;;2.84;76.70;100838.00;5105819;28;20076;-75
2023/01/24 11:48:38;;;;;;;24.95;17.15;;;;;;;2.83;76.95;100831.03;5106997;28;20040;-75
2023/01/24 11:51:10;;;;;;;24.35;17.42;;;;;;;2.82;76.67;100837.13;5106855;28;20052;-75
2023/01/24 11:53:53;;;;;;;26.08;17.92;;;;;;;2.84;76.78;100832.78;5106444;28;20050;-75
2023/01/24 11:56:28;;;;;;;24.38;17.30;;;;;;;2.83;76.93;100832.78;5106980;28;20085;-75
2023/01/24 11:59:12;;;;;;;23.00;16.70;;;;;;;2.71;76.86;100811.84;5105291;28;20051;-75
2023/01/24 12:01:51;;;;;;;24.17;17.83;;;;;;;2.02;76.83;100683.63;5105848;28;20072;-75